Time;durP1;ratioP1;P1;durP2;ratioP2;P2;SDS_P1;SDS_P2;PMS_P1;PMS_P2;Temp;Humidity;BMP_temperature;BMP_pressure;BME280_temperature;BME280_humidity;BME280_pressure;Samples;Min_cycle;Max_cycle;Signal;HPM_P1;HPM_P2
2023/06/05 00:00:41;;;;;;;27.70;25.90;;;;;;;;;;5024867;28;20049;-60
2023/06/05 00:03:06;;;;;;;24.00;22.50;;;;;;;;;;5026682;28;20118;-60
2023/06/05 00:05:31;;;;;;;23.80;22.37;;;;;;;;;;5027271;28;20044;-61
2023/06/05 00:07:57;;;;;;;20.83;19.63;;;;;;;;;;5026995;28;20041;-60
2023/06/05 00:10:23;;;;;;;24.87;23.37;;;;;;;;;;5045577;28;20112;-61
2023/06/05 00:12:48;;;;;;;23.33;21.93;;;;;;;;;;5046241;28;20496;-60
2023/06/05 00:15:14;;;;;;;22.73;21.30;;;;;;;;;;5027893;28;20037;-61
2023/06/05 00:17:40;;;;;;;23.53;22.03;;;;;;;;;;5046987;28;20590;-61
2023/06/05 00:20:05;;;;;;;24.13;22.63;;;;;;;;;;5045483;28;20037;-60
2023/06/05 00:22:31;;;;;;;25.17;23.47;;;;;;;;;;5045770;28;20033;-61
2023/06/05 00:24:57;;;;;;;22.70;21.23;;;;;;;;;;5047086;28;20037;-60
2023/06/05 00:27:22;;;;;;;24.27;22.67;;;;;;;;;;5046991;28;20067;-61
2023/06/05 00:29:48;;;;;;;23.67;22.10;;;;;;;;;;5027539;28;20052;-60
2023/06/05 00:32:14;;;;;;;23.37;21.97;;;;;;;;;;5039292;28;20036;-60
2023/06/05 00:34:40;;;;;;;25.63;23.90;;;;;;;;;;5042813;28;20040;-61
2023/06/05 00:37:06;;;;;;;22.27;20.97;;;;;;;;;;5043617;28;20377;-61
2023/06/05 00:39:31;;;;;;;26.47;24.77;;;;;;;;;;5041734;28;20090;-60
2023/06/05 00:41:57;;;;;;;24.20;22.60;;;;;;;;;;5056520;28;20040;-60
2023/06/05 00:44:22;;;;;;;22.03;20.70;;;;;;;;;;5041775;28;20033;-62
2023/06/05 00:46:50;;;;;;;22.30;20.97;;;;;;;;;;5042449;28;20045;-60
2023/06/05 00:49:15;;;;;;;25.40;23.70;;;;;;;;;;5044428;28;20306;-60
2023/06/05 00:51:42;;;;;;;26.43;24.57;;;;;;;;;;5022833;28;20729;-61
2023/06/05 00:54:07;;;;;;;21.43;20.13;;;;;;;;;;5058673;28;20108;-60
2023/06/05 00:56:35;;;;;;;22.87;21.30;;;;;;;;;;5044793;28;20275;-60
2023/06/05 00:59:01;;;;;;;23.53;22.07;;;;;;;;;;5043064;28;20041;-60
2023/06/05 01:01:28;;;;;;;24.27;22.77;;;;;;;;;;5040904;28;20665;-60
2023/06/05 01:03:57;;;;;;;23.93;22.47;;;;;;;;;;5042509;28;20563;-62
2023/06/05 01:06:24;;;;;;;23.83;22.33;;;;;;;;;;5024041;28;20272;-62
2023/06/05 01:08:50;;;;;;;23.63;22.07;;;;;;;;;;5042002;28;20299;-61
2023/06/05 01:11:34;;;;;;;24.37;22.80;;;;;;;;;;5042793;28;20316;-61
2023/06/05 01:14:12;;;;;;;23.60;22.13;;;;;;;;;;5042295;28;20261;-60
2023/06/05 01:16:39;;;;;;;23.97;22.47;;;;;;;;;;5024172;28;20148;-60
2023/06/05 01:19:04;;;;;;;24.93;23.33;;;;;;;;;;5038152;28;20953;-61
2023/06/05 01:21:31;;;;;;;23.17;21.70;;;;;;;;;;5029293;28;20291;-60
2023/06/05 01:23:57;;;;;;;23.47;22.07;;;;;;;;;;5042116;28;20037;-60
2023/06/05 01:26:26;;;;;;;23.83;22.30;;;;;;;;;;5024574;28;20295;-60
2023/06/05 01:28:52;;;;;;;23.93;22.43;;;;;;;;;;5042646;28;20071;-60
2023/06/05 01:31:19;;;;;;;23.97;22.47;;;;;;;;;;5041702;28;20358;-60
2023/06/05 01:33:56;;;;;;;25.83;24.17;;;;;;;;;;5014473;28;20275;-60
2023/06/05 01:36:22;;;;;;;23.50;22.00;;;;;;;;;;5013389;28;20642;-61
2023/06/05 01:38:48;;;;;;;23.53;22.07;;;;;;;;;;5014236;28;20307;-60
2023/06/05 01:41:14;;;;;;;24.43;22.80;;;;;;;;;;5041129;28;20290;-61
2023/06/05 01:43:40;;;;;;;23.90;22.33;;;;;;;;;;5040905;28;20805;-61
2023/06/05 01:46:07;;;;;;;22.67;21.27;;;;;;;;;;5041438;28;20719;-61
2023/06/05 01:48:33;;;;;;;24.97;23.37;;;;;;;;;;5041510;28;20115;-61
2023/06/05 01:50:59;;;;;;;23.83;22.37;;;;;;;;;;5040740;28;20280;-61
2023/06/05 01:53:25;;;;;;;22.97;21.57;;;;;;;;;;5041559;28;20450;-60
2023/06/05 01:55:56;;;;;;;26.00;24.30;;;;;;;;;;5022977;28;20289;-60
2023/06/05 01:58:23;;;;;;;24.47;22.93;;;;;;;;;;5022323;28;20584;-60
2023/06/05 02:00:49;;;;;;;23.50;22.00;;;;;;;;;;5007700;28;20276;-60
2023/06/05 02:03:15;;;;;;;24.17;22.67;;;;;;;;;;5042141;28;20387;-60
2023/06/05 02:05:41;;;;;;;24.17;22.63;;;;;;;;;;5041886;28;20330;-61
2023/06/05 02:08:09;;;;;;;24.47;22.87;;;;;;;;;;5041132;28;20045;-61
2023/06/05 02:10:35;;;;;;;27.30;25.40;;;;;;;;;;5022334;28;20027;-61
2023/06/05 02:13:01;;;;;;;23.23;21.80;;;;;;;;;;5023292;28;21106;-60
2023/06/05 02:15:28;;;;;;;24.00;22.50;;;;;;;;;;5040048;28;20377;-61
2023/06/05 02:17:54;;;;;;;25.20;23.57;;;;;;;;;;5029666;28;20053;-60
2023/06/05 02:20:21;;;;;;;23.60;22.20;;;;;;;;;;5022276;28;20362;-60
2023/06/05 02:22:49;;;;;;;24.43;22.83;;;;;;;;;;5041681;28;20036;-60
2023/06/05 02:25:15;;;;;;;27.23;25.37;;;;;;;;;;5041670;28;20256;-60
2023/06/05 02:27:41;;;;;;;22.87;21.43;;;;;;;;;;5006389;28;20299;-61
2023/06/05 02:30:07;;;;;;;25.27;23.63;;;;;;;;;;5041052;28;20697;-60
2023/06/05 02:32:32;;;;;;;22.53;21.10;;;;;;;;;;5041815;28;20036;-60
2023/06/05 02:34:58;;;;;;;25.87;24.17;;;;;;;;;;5021213;28;20041;-60
2023/06/05 02:37:27;;;;;;;23.73;22.30;;;;;;;;;;5022498;28;20531;-60
2023/06/05 02:39:53;;;;;;;21.47;20.07;;;;;;;;;;5039588;28;20063;-59
2023/06/05 02:42:19;;;;;;;25.77;23.83;;;;;;;;;;5023209;28;20283;-62
2023/06/05 02:44:46;;;;;;;26.97;25.17;;;;;;;;;;5021413;28;20574;-60
2023/06/05 02:47:12;;;;;;;23.57;22.07;;;;;;;;;;5040807;28;20368;-60
2023/06/05 02:49:37;;;;;;;25.40;23.73;;;;;;;;;;5040580;28;20341;-59
2023/06/05 02:52:03;;;;;;;23.50;22.07;;;;;;;;;;5040576;28;20358;-59
2023/06/05 02:54:29;;;;;;;24.13;22.53;;;;;;;;;;5012281;28;20043;-60
2023/06/05 02:57:00;;;;;;;23.50;22.03;;;;;;;;;;5021697;28;20283;-61
2023/06/05 02:59:27;;;;;;;23.80;22.30;;;;;;;;;;5021017;28;20283;-60
2023/06/05 03:01:53;;;;;;;23.43;22.00;;;;;;;;;;5022047;28;20360;-61
2023/06/05 03:04:21;;;;;;;24.73;23.20;;;;;;;;;;5012456;28;20766;-61
2023/06/05 03:06:49;;;;;;;24.57;23.07;;;;;;;;;;5054945;28;20313;-60
2023/06/05 03:09:14;;;;;;;24.47;22.97;;;;;;;;;;5040140;28;20295;-60
2023/06/05 03:11:40;;;;;;;24.97;23.27;;;;;;;;;;5035935;28;20053;-60
2023/06/05 03:14:07;;;;;;;24.33;22.80;;;;;;;;;;5021409;28;20079;-59
2023/06/05 03:16:41;;;;;;;25.17;23.43;;;;;;;;;;5036159;28;20801;-60
2023/06/05 03:19:10;;;;;;;29.97;27.67;;;;;;;;;;5037678;28;20295;-60
2023/06/05 03:21:39;;;;;;;24.83;23.23;;;;;;;;;;5029530;28;20356;-61
2023/06/05 03:24:06;;;;;;;28.37;26.57;;;;;;;;;;5037729;28;20693;-60
2023/06/05 03:26:32;;;;;;;27.27;25.53;;;;;;;;;;5021888;28;20284;-61
2023/06/05 03:28:58;;;;;;;23.63;22.23;;;;;;;;;;5011559;28;20827;-60
2023/06/05 03:31:26;;;;;;;23.47;22.13;;;;;;;;;;5011117;28;20141;-61
2023/06/05 03:33:51;;;;;;;26.33;24.57;;;;;;;;;;5020853;28;20274;-61
2023/06/05 03:36:18;;;;;;;24.73;23.17;;;;;;;;;;5040160;28;20065;-62
2023/06/05 03:38:47;;;;;;;24.07;22.57;;;;;;;;;;5022613;28;20307;-60
2023/06/05 03:41:12;;;;;;;25.07;23.57;;;;;;;;;;5021522;28;20280;-60
2023/06/05 03:43:39;;;;;;;27.10;25.30;;;;;;;;;;5022646;28;20048;-59
2023/06/05 03:46:05;;;;;;;24.20;22.73;;;;;;;;;;5037060;28;20279;-61
2023/06/05 03:48:31;;;;;;;24.63;23.20;;;;;;;;;;5036840;28;20459;-61
2023/06/05 03:50:57;;;;;;;27.40;25.57;;;;;;;;;;5021881;28;20412;-61
2023/06/05 03:53:23;;;;;;;24.70;23.17;;;;;;;;;;5021531;28;20308;-60
2023/06/05 03:55:52;;;;;;;26.07;24.37;;;;;;;;;;5020251;28;20283;-61
2023/06/05 03:58:23;;;;;;;23.67;22.20;;;;;;;;;;5021518;28;20562;-61
2023/06/05 04:00:53;;;;;;;26.43;24.77;;;;;;;;;;5021127;28;20341;-60
2023/06/05 04:03:20;;;;;;;25.93;24.27;;;;;;;;;;5037005;28;20306;-61
2023/06/05 04:05:47;;;;;;;24.80;23.20;;;;;;;;;;5027820;28;20291;-61
2023/06/05 04:08:13;;;;;;;25.00;23.50;;;;;;;;;;5043271;28;20818;-60
2023/06/05 04:10:40;;;;;;;27.40;25.67;;;;;;;;;;5023502;28;20040;-60
2023/06/05 04:13:05;;;;;;;23.50;22.20;;;;;;;;;;5043975;28;20310;-60
2023/06/05 04:15:33;;;;;;;25.43;23.90;;;;;;;;;;5024692;28;20025;-60
2023/06/05 04:18:00;;;;;;;24.10;22.67;;;;;;;;;;5025892;28;20384;-60
2023/06/05 04:20:26;;;;;;;27.57;25.77;;;;;;;;;;5024484;28;20379;-61
2023/06/05 04:22:53;;;;;;;26.87;25.03;;;;;;;;;;5040564;28;20040;-61
2023/06/05 04:25:19;;;;;;;23.63;22.20;;;;;;;;;;5024080;28;20309;-60
2023/06/05 04:27:49;;;;;;;24.33;22.93;;;;;;;;;;5041921;28;20384;-60
2023/06/05 04:30:15;;;;;;;22.90;21.60;;;;;;;;;;5043149;28;20352;-60
2023/06/05 04:32:41;;;;;;;25.07;23.57;;;;;;;;;;5031259;28;20792;-61
2023/06/05 04:35:08;;;;;;;26.23;24.57;;;;;;;;;;5024222;28;20295;-60
2023/06/05 04:37:33;;;;;;;25.33;23.77;;;;;;;;;;5013485;28;20041;-60
2023/06/05 04:39:59;;;;;;;24.33;22.87;;;;;;;;;;5043477;28;20771;-60
2023/06/05 04:42:27;;;;;;;25.27;23.67;;;;;;;;;;5031247;28;20068;-61
2023/06/05 04:44:57;;;;;;;23.90;22.40;;;;;;;;;;5022450;28;20029;-60
2023/06/05 04:47:22;;;;;;;23.37;21.97;;;;;;;;;;5025029;28;20307;-60
2023/06/05 04:49:51;;;;;;;26.97;25.27;;;;;;;;;;5043441;28;20788;-59
2023/06/05 04:52:17;;;;;;;23.83;22.33;;;;;;;;;;5058672;28;20393;-59
2023/06/05 04:54:43;;;;;;;26.30;24.70;;;;;;;;;;5023924;28;20619;-59
2023/06/05 04:57:10;;;;;;;29.50;27.47;;;;;;;;;;5025273;28;20337;-59
2023/06/05 04:59:36;;;;;;;27.50;25.73;;;;;;;;;;5024862;28;20036;-59
2023/06/05 05:02:03;;;;;;;25.73;24.20;;;;;;;;;;5013940;28;20287;-58
2023/06/05 05:04:29;;;;;;;26.17;24.67;;;;;;;;;;5039647;28;20685;-60
2023/06/05 05:07:00;;;;;;;26.37;24.67;;;;;;;;;;5042892;28;20291;-60
2023/06/05 05:09:27;;;;;;;24.77;23.27;;;;;;;;;;5041666;28;20293;-62
2023/06/05 05:11:53;;;;;;;23.83;22.40;;;;;;;;;;5023725;28;20315;-69
2023/06/05 05:14:19;;;;;;;26.60;24.83;;;;;;;;;;5024693;28;20649;-61
2023/06/05 05:16:45;;;;;;;25.27;23.60;;;;;;;;;;5014043;28;20044;-60
2023/06/05 05:19:11;;;;;;;25.17;23.57;;;;;;;;;;5024864;28;20348;-61
2023/06/05 05:21:37;;;;;;;28.03;26.17;;;;;;;;;;5022330;28;20048;-60
2023/06/05 05:24:03;;;;;;;25.10;23.63;;;;;;;;;;5041605;28;20831;-61
2023/06/05 05:26:29;;;;;;;25.97;24.43;;;;;;;;;;5039038;28;20669;-60
2023/06/05 05:28:55;;;;;;;25.87;24.27;;;;;;;;;;5042581;28;20295;-61
2023/06/05 05:31:20;;;;;;;28.67;26.87;;;;;;;;;;5012553;28;20033;-61
2023/06/05 05:33:46;;;;;;;25.77;24.27;;;;;;;;;;5023862;28;20087;-61
2023/06/05 05:36:14;;;;;;;24.73;23.20;;;;;;;;;;5030163;28;20029;-61
2023/06/05 05:38:39;;;;;;;24.40;23.00;;;;;;;;;;5006575;28;20358;-61
2023/06/05 05:41:04;;;;;;;25.03;23.47;;;;;;;;;;5025222;28;20371;-62
2023/06/05 05:43:30;;;;;;;23.80;22.43;;;;;;;;;;5024083;28;20395;-61
2023/06/05 05:45:55;;;;;;;26.23;24.63;;;;;;;;;;5040618;28;20040;-61
2023/06/05 05:48:22;;;;;;;24.90;23.53;;;;;;;;;;5042074;28;20041;-61
2023/06/05 05:50:48;;;;;;;27.30;25.70;;;;;;;;;;5041681;28;20107;-60
2023/06/05 05:53:13;;;;;;;23.60;22.30;;;;;;;;;;5023813;28;21164;-60
2023/06/05 05:55:39;;;;;;;25.37;23.97;;;;;;;;;;5022410;28;20033;-61
2023/06/05 05:58:05;;;;;;;26.37;24.80;;;;;;;;;;5042238;28;20045;-61
2023/06/05 06:00:30;;;;;;;26.63;25.07;;;;;;;;;;5040563;28;20170;-61
2023/06/05 06:02:56;;;;;;;27.67;26.07;;;;;;;;;;5041243;28;20041;-60
2023/06/05 06:05:22;;;;;;;31.00;28.83;;;;;;;;;;5013851;28;20073;-61
2023/06/05 06:07:48;;;;;;;29.80;27.90;;;;;;;;;;5040103;28;20848;-61
2023/06/05 06:10:13;;;;;;;28.97;27.17;;;;;;;;;;5035267;28;20079;-61
2023/06/05 06:12:39;;;;;;;27.13;25.50;;;;;;;;;;5040675;28;20060;-60
2023/06/05 06:15:05;;;;;;;26.00;24.50;;;;;;;;;;5040252;28;20076;-61
2023/06/05 06:17:30;;;;;;;25.37;23.97;;;;;;;;;;5005682;28;20511;-61
2023/06/05 06:19:57;;;;;;;24.80;23.33;;;;;;;;;;5041940;28;20041;-61
2023/06/05 06:22:22;;;;;;;27.67;25.97;;;;;;;;;;5041877;28;20037;-61
2023/06/05 06:24:50;;;;;;;26.50;25.00;;;;;;;;;;5042279;28;20749;-61
2023/06/05 06:27:16;;;;;;;29.07;27.27;;;;;;;;;;5040526;28;20033;-62
2023/06/05 06:29:50;;;;;;;30.67;28.73;;;;;;;;;;5049360;28;20413;-60
2023/06/05 06:32:16;;;;;;;25.90;24.40;;;;;;;;;;5036774;28;20362;-61
2023/06/05 06:34:44;;;;;;;28.67;26.97;;;;;;;;;;5040476;28;20348;-60
2023/06/05 06:37:14;;;;;;;26.83;25.27;;;;;;;;;;5020773;28;20280;-62
2023/06/05 06:39:41;;;;;;;27.70;26.13;;;;;;;;;;5041860;28;20283;-62
2023/06/05 06:42:06;;;;;;;28.30;26.77;;;;;;;;;;5038494;28;20286;-61
2023/06/05 06:44:33;;;;;;;29.10;27.43;;;;;;;;;;4999636;28;20294;-61
2023/06/05 06:46:58;;;;;;;28.00;26.43;;;;;;;;;;5038069;28;20267;-60
2023/06/05 06:49:24;;;;;;;27.00;25.60;;;;;;;;;;5041706;28;20040;-62
2023/06/05 06:51:49;;;;;;;27.90;26.40;;;;;;;;;;5040504;28;20578;-62
2023/06/05 06:54:15;;;;;;;26.17;24.77;;;;;;;;;;5041906;28;20037;-62
2023/06/05 06:56:40;;;;;;;30.20;28.37;;;;;;;;;;5038718;28;20044;-62
2023/06/05 06:59:13;;;;;;;27.63;26.03;;;;;;;;;;5039918;28;20135;-62
2023/06/05 07:01:42;;;;;;;27.50;25.90;;;;;;;;;;5020551;28;20419;-61
2023/06/05 07:04:07;;;;;;;27.80;26.20;;;;;;;;;;5040863;28;20133;-62
2023/06/05 07:06:33;;;;;;;27.73;26.17;;;;;;;;;;5039372;28;20283;-61
2023/06/05 07:08:58;;;;;;;26.53;25.10;;;;;;;;;;5040255;28;20144;-62
2023/06/05 07:11:24;;;;;;;28.27;26.73;;;;;;;;;;5040663;28;20149;-62
2023/06/05 07:13:49;;;;;;;28.23;26.67;;;;;;;;;;5041072;28;20079;-61
2023/06/05 07:16:15;;;;;;;28.70;27.10;;;;;;;;;;5038358;28;20944;-62
2023/06/05 07:18:40;;;;;;;27.33;25.90;;;;;;;;;;5040427;28;20037;-62
2023/06/05 07:21:06;;;;;;;27.90;26.43;;;;;;;;;;5039940;28;20511;-61
2023/06/05 07:23:32;;;;;;;29.23;27.63;;;;;;;;;;5040568;28;20033;-61
2023/06/05 07:25:57;;;;;;;28.93;27.27;;;;;;;;;;5041688;28;20040;-61
2023/06/05 07:28:25;;;;;;;28.10;26.67;;;;;;;;;;5021880;28;20515;-62
2023/06/05 07:30:51;;;;;;;29.30;27.70;;;;;;;;;;5039418;28;20493;-62
2023/06/05 07:33:16;;;;;;;30.27;28.67;;;;;;;;;;5020577;28;20115;-62
2023/06/05 07:35:42;;;;;;;30.50;28.90;;;;;;;;;;5039757;28;20128;-61
2023/06/05 07:38:08;;;;;;;30.70;29.03;;;;;;;;;;5038788;28;20083;-63
2023/06/05 07:40:33;;;;;;;31.23;29.50;;;;;;;;;;5040641;28;20037;-61
2023/06/05 07:42:59;;;;;;;29.17;27.67;;;;;;;;;;5043943;28;20065;-60
2023/06/05 07:45:24;;;;;;;31.43;29.67;;;;;;;;;;5042886;28;20065;-60
2023/06/05 07:47:50;;;;;;;31.90;30.17;;;;;;;;;;5042139;28;20081;-60
2023/06/05 07:50:15;;;;;;;31.17;29.30;;;;;;;;;;5044100;28;20112;-61
2023/06/05 07:52:41;;;;;;;32.80;31.00;;;;;;;;;;5044667;28;20679;-60
2023/06/05 07:55:07;;;;;;;29.53;27.93;;;;;;;;;;5044461;28;20029;-60
2023/06/05 07:57:33;;;;;;;30.23;28.53;;;;;;;;;;5045102;28;20106;-61
2023/06/05 07:59:58;;;;;;;30.87;29.17;;;;;;;;;;5042339;28;20037;-60
2023/06/05 08:02:24;;;;;;;34.40;32.37;;;;;;;;;;5040249;28;20036;-60
2023/06/05 08:04:49;;;;;;;30.83;29.13;;;;;;;;;;5039488;28;20037;-61
2023/06/05 08:07:15;;;;;;;30.57;28.93;;;;;;;;;;5043319;28;20044;-60
2023/06/05 08:09:41;;;;;;;32.53;30.87;;;;;;;;;;5042621;28;20471;-61
2023/06/05 08:12:06;;;;;;;32.03;30.30;;;;;;;;;;5043898;28;20052;-61
2023/06/05 08:14:33;;;;;;;36.30;34.17;;;;;;;;;;5041557;28;20119;-61
2023/06/05 08:16:59;;;;;;;32.77;30.97;;;;;;;;;;5044198;28;20040;-60
2023/06/05 08:19:24;;;;;;;30.87;29.27;;;;;;;;;;5000912;28;20407;-60
2023/06/05 08:21:51;;;;;;;31.47;29.67;;;;;;;;;;5041377;28;20033;-60
2023/06/05 08:24:16;;;;;;;32.27;30.60;;;;;;;;;;5025513;28;20099;-60
2023/06/05 08:26:42;;;;;;;34.40;32.60;;;;;;;;;;5043349;28;20345;-60
2023/06/05 08:29:08;;;;;;;35.50;33.60;;;;;;;;;;5042337;28;20052;-65
2023/06/05 08:31:34;;;;;;;38.20;36.13;;;;;;;;;;5043470;28;20041;-60
2023/06/05 08:34:00;;;;;;;34.53;32.73;;;;;;;;;;5042359;28;20036;-61
2023/06/05 08:36:25;;;;;;;34.43;32.73;;;;;;;;;;5038305;28;20029;-61
2023/06/05 08:38:50;;;;;;;35.57;33.83;;;;;;;;;;5041094;28;20551;-61
2023/06/05 08:41:16;;;;;;;35.13;33.37;;;;;;;;;;5042630;28;20041;-60
2023/06/05 08:43:44;;;;;;;35.90;33.97;;;;;;;;;;5043481;28;20067;-61
2023/06/05 08:46:10;;;;;;;36.40;34.50;;;;;;;;;;5043345;28;20127;-60
2023/06/05 08:48:43;;;;;;;35.57;33.77;;;;;;;;;;5043159;28;20086;-61
2023/06/05 08:51:15;;;;;;;35.47;33.63;;;;;;;;;;5042478;28;20035;-60
2023/06/05 08:53:42;;;;;;;36.17;34.27;;;;;;;;;;5041545;28;20152;-60
2023/06/05 08:56:08;;;;;;;36.13;34.17;;;;;;;;;;5043453;28;20028;-62
2023/06/05 08:58:35;;;;;;;36.03;34.17;;;;;;;;;;5043268;28;20052;-60
2023/06/05 09:01:01;;;;;;;38.03;35.97;;;;;;;;;;5042687;28;20116;-61
2023/06/05 09:03:26;;;;;;;38.40;36.47;;;;;;;;;;5041897;28;20090;-60
2023/06/05 09:05:52;;;;;;;36.53;34.67;;;;;;;;;;5042214;28;20041;-60
2023/06/05 09:08:19;;;;;;;41.23;38.93;;;;;;;;;;5041626;28;20567;-59
2023/06/05 09:10:44;;;;;;;35.10;33.40;;;;;;;;;;5042796;28;20432;-59
2023/06/05 09:13:13;;;;;;;37.63;35.80;;;;;;;;;;5041513;28;20037;-59
2023/06/05 09:15:38;;;;;;;39.13;37.17;;;;;;;;;;5041860;28;20067;-59
2023/06/05 09:18:07;;;;;;;38.30;36.40;;;;;;;;;;5042513;28;20052;-59
2023/06/05 09:20:34;;;;;;;36.77;34.93;;;;;;;;;;5042612;28;20037;-59
2023/06/05 09:23:03;;;;;;;38.97;37.07;;;;;;;;;;5040750;28;20523;-59
2023/06/05 09:25:43;;;;;;;40.80;38.70;;;;;;;;;;5042579;28;20037;-58
2023/06/05 09:28:09;;;;;;;39.47;37.43;;;;;;;;;;5042584;28;20044;-60
2023/06/05 09:30:52;;;;;;;38.40;36.50;;;;;;;;;;5042890;28;20537;-59
2023/06/05 09:33:19;;;;;;;40.57;38.53;;;;;;;;;;5041889;28;20096;-59
2023/06/05 09:35:44;;;;;;;39.77;37.87;;;;;;;;;;5042643;28;20459;-59
2023/06/05 09:38:26;;;;;;;38.47;36.53;;;;;;;;;;5041144;28;20041;-58
2023/06/05 09:40:52;;;;;;;41.30;39.40;;;;;;;;;;5041967;28;20036;-57
2023/06/05 09:43:21;;;;;;;39.37;37.37;;;;;;;;;;5042436;28;20033;-59
2023/06/05 09:45:46;;;;;;;39.50;37.53;;;;;;;;;;5042058;28;20069;-59
2023/06/05 09:48:13;;;;;;;40.37;38.33;;;;;;;;;;5042341;28;20144;-60
2023/06/05 09:50:38;;;;;;;45.87;43.60;;;;;;;;;;5022988;28;20604;-59
2023/06/05 09:53:05;;;;;;;41.47;39.47;;;;;;;;;;5024190;28;20033;-58
2023/06/05 09:55:30;;;;;;;46.17;43.60;;;;;;;;;;5041337;28;20439;-59
2023/06/05 09:57:57;;;;;;;42.03;40.00;;;;;;;;;;5042375;28;20033;-57
2023/06/05 10:00:24;;;;;;;41.53;39.53;;;;;;;;;;5041582;28;20758;-59
2023/06/05 10:02:50;;;;;;;40.93;39.03;;;;;;;;;;5023757;28;20041;-59
2023/06/05 10:05:16;;;;;;;41.30;39.20;;;;;;;;;;5040604;28;20486;-60
2023/06/05 10:07:42;;;;;;;38.40;36.60;;;;;;;;;;5041719;28;20052;-58
2023/06/05 10:10:10;;;;;;;37.13;35.40;;;;;;;;;;5042822;28;20418;-59
2023/06/05 10:12:36;;;;;;;39.30;37.40;;;;;;;;;;5040060;28;20033;-60
2023/06/05 10:15:02;;;;;;;40.93;38.83;;;;;;;;;;5041477;28;20091;-60
2023/06/05 10:17:27;;;;;;;41.63;39.53;;;;;;;;;;5042464;28;20048;-60
2023/06/05 10:19:53;;;;;;;44.63;42.33;;;;;;;;;;5039501;28;20052;-59
2023/06/05 10:22:19;;;;;;;37.73;36.00;;;;;;;;;;5042343;28;20025;-59
2023/06/05 10:24:46;;;;;;;43.20;41.10;;;;;;;;;;5040396;28;20045;-59
2023/06/05 10:27:12;;;;;;;42.23;40.23;;;;;;;;;;5041278;28;20036;-59
2023/06/05 10:29:40;;;;;;;46.30;44.07;;;;;;;;;;5040887;28;20552;-59
2023/06/05 10:32:14;;;;;;;44.43;42.30;;;;;;;;;;5041238;28;20531;-58
2023/06/05 10:34:53;;;;;;;43.53;41.33;;;;;;;;;;5041466;28;20046;-59
2023/06/05 10:37:25;;;;;;;68.40;65.40;;;;;;;;;;5041099;28;20507;-59
2023/06/05 10:39:50;;;;;;;52.13;49.33;;;;;;;;;;5035239;28;20506;-59
2023/06/05 10:42:25;;;;;;;42.77;40.70;;;;;;;;;;5036877;28;20223;-59
2023/06/05 10:44:51;;;;;;;47.07;44.80;;;;;;;;;;5038411;28;20036;-59
2023/06/05 10:47:35;;;;;;;45.43;43.30;;;;;;;;;;5022296;28;20033;-59
2023/06/05 10:50:16;;;;;;;42.77;40.77;;;;;;;;;;5040935;28;20068;-60
2023/06/05 10:52:42;;;;;;;45.57;43.40;;;;;;;;;;5040924;28;20036;-59
2023/06/05 10:55:08;;;;;;;44.33;42.17;;;;;;;;;;5040903;28;20116;-60
2023/06/05 10:57:53;;;;;;;41.87;39.87;;;;;;;;;;5041699;28;20076;-60
2023/06/05 11:00:19;;;;;;;43.67;41.50;;;;;;;;;;5039340;28;20021;-61
2023/06/05 11:02:48;;;;;;;41.37;39.33;;;;;;;;;;5041608;28;20055;-59
2023/06/05 11:05:14;;;;;;;44.97;42.83;;;;;;;;;;5040597;28;20039;-58
2023/06/05 11:07:40;;;;;;;42.43;40.50;;;;;;;;;;5044609;28;20048;-61
2023/06/05 11:10:07;;;;;;;44.07;41.73;;;;;;;;;;5039894;28;20444;-59
2023/06/05 11:12:35;;;;;;;45.00;42.83;;;;;;;;;;5021832;28;20068;-59
2023/06/05 11:15:04;;;;;;;45.37;43.07;;;;;;;;;;5020638;28;20396;-58
2023/06/05 11:17:30;;;;;;;43.60;41.50;;;;;;;;;;5020382;28;20045;-58
2023/06/05 11:19:56;;;;;;;40.10;38.20;;;;;;;;;;5019917;28;20117;-58
2023/06/05 11:22:22;;;;;;;41.00;39.00;;;;;;;;;;5019529;28;20055;-58
2023/06/05 11:25:08;;;;;;;40.50;38.40;;;;;;;;;;5020080;28;20087;-58
2023/06/05 11:27:41;;;;;;;37.27;35.33;;;;;;;;;;5016559;28;20744;-59
2023/06/05 11:30:11;;;;;;;40.13;37.83;;;;;;;;;;5019922;28;20042;-60
2023/06/05 11:32:36;;;;;;;39.13;37.10;;;;;;;;;;5020484;28;20036;-60
2023/06/05 11:35:02;;;;;;;39.70;37.60;;;;;;;;;;5020010;28;20396;-59
2023/06/05 11:37:28;;;;;;;39.87;37.77;;;;;;;;;;5020644;28;20037;-59
2023/06/05 11:39:53;;;;;;;39.43;37.37;;;;;;;;;;5019570;28;20043;-60
2023/06/05 11:42:23;;;;;;;36.03;34.23;;;;;;;;;;5019639;28;20045;-58
2023/06/05 11:44:48;;;;;;;38.67;36.73;;;;;;;;;;5018996;28;20029;-58
2023/06/05 11:47:24;;;;;;;38.83;36.83;;;;;;;;;;5019339;28;20527;-59
2023/06/05 11:49:49;;;;;;;40.43;38.40;;;;;;;;;;5019177;28;20088;-59
2023/06/05 11:52:19;;;;;;;36.10;34.40;;;;;;;;;;5020849;28;20112;-58
2023/06/05 11:54:53;;;;;;;36.53;34.77;;;;;;;;;;5020734;28;20036;-59
2023/06/05 11:57:26;;;;;;;36.05;34.25;;;;;;;;;;5019994;28;20041;-59
2023/06/05 11:59:54;;;;;;;39.77;37.40;;;;;;;;;;5018946;28;20590;-60
2023/06/05 12:02:21;;;;;;;37.53;35.67;;;;;;;;;;5018983;28;20029;-59
2023/06/05 12:04:47;;;;;;;37.17;35.23;;;;;;;;;;5019772;28;20465;-59
2023/06/05 12:07:12;;;;;;;36.13;34.33;;;;;;;;;;5019700;28;20038;-59
2023/06/05 12:09:38;;;;;;;38.40;36.47;;;;;;;;;;5034697;28;20057;-60
2023/06/05 12:12:05;;;;;;;35.90;34.10;;;;;;;;;;5038626;28;20614;-58
2023/06/05 12:14:31;;;;;;;41.53;39.23;;;;;;;;;;5040631;28;20094;-58
2023/06/05 12:16:57;;;;;;;37.17;35.23;;;;;;;;;;5040599;28;20764;-60
2023/06/05 12:19:23;;;;;;;38.07;36.13;;;;;;;;;;5039126;28;20049;-58
2023/06/05 12:21:50;;;;;;;37.00;35.10;;;;;;;;;;5022507;28;20036;-59
2023/06/05 12:24:22;;;;;;;35.63;33.83;;;;;;;;;;5041027;28;20088;-58
2023/06/05 12:26:53;;;;;;;38.23;36.20;;;;;;;;;;5039726;28;20471;-58
2023/06/05 12:29:18;;;;;;;36.07;34.27;;;;;;;;;;5042665;28;20041;-58
2023/06/05 12:31:44;;;;;;;37.30;35.30;;;;;;;;;;5024262;28;20036;-59
2023/06/05 12:34:10;;;;;;;37.47;35.57;;;;;;;;;;5043784;28;20669;-58
2023/06/05 12:36:42;;;;;;;37.93;35.90;;;;;;;;;;5041141;28;20151;-59
2023/06/05 12:39:15;;;;;;;35.93;34.13;;;;;;;;;;5043042;28;20040;-59
2023/06/05 12:41:41;;;;;;;39.13;36.93;;;;;;;;;;5043373;28;20484;-60
2023/06/05 12:44:08;;;;;;;38.60;36.30;;;;;;;;;;5043102;28;20037;-64
2023/06/05 12:46:33;;;;;;;37.13;35.03;;;;;;;;;;5040445;28;20601;-61
2023/06/05 12:49:00;;;;;;;36.10;34.10;;;;;;;;;;5043907;28;20032;-60
2023/06/05 12:51:26;;;;;;;38.30;35.93;;;;;;;;;;5042287;28;20039;-60
2023/06/05 12:53:55;;;;;;;33.17;31.40;;;;;;;;;;5025153;28;20474;-60
2023/06/05 12:56:24;;;;;;;33.77;31.93;;;;;;;;;;5042411;28;20116;-61
2023/06/05 12:58:59;;;;;;;34.63;32.70;;;;;;;;;;5025372;28;20048;-59
2023/06/05 13:01:29;;;;;;;34.47;32.65;;;;;;;;;;5041913;28;20025;-60
2023/06/05 13:03:54;;;;;;;39.77;37.57;;;;;;;;;;5042514;28;20037;-60
2023/06/05 13:06:20;;;;;;;37.27;35.03;;;;;;;;;;5038593;28;20037;-60
2023/06/05 13:08:46;;;;;;;34.97;33.03;;;;;;;;;;5050992;28;20085;-60
2023/06/05 13:11:12;;;;;;;33.93;32.10;;;;;;;;;;5040951;28;20061;-60
2023/06/05 13:13:38;;;;;;;33.27;31.57;;;;;;;;;;5042889;28;20028;-61
2023/06/05 13:16:05;;;;;;;36.97;35.03;;;;;;;;;;5041065;28;20492;-60
2023/06/05 13:18:31;;;;;;;39.30;37.10;;;;;;;;;;5022796;28;20048;-60
2023/06/05 13:20:56;;;;;;;39.07;36.97;;;;;;;;;;5041482;28;20049;-60
2023/06/05 13:23:22;;;;;;;39.57;37.47;;;;;;;;;;5042151;28;20092;-61
2023/06/05 13:25:47;;;;;;;37.27;35.23;;;;;;;;;;5042594;28;20510;-60
2023/06/05 13:28:13;;;;;;;33.37;31.73;;;;;;;;;;5042008;28;20044;-61
2023/06/05 13:30:38;;;;;;;36.90;34.97;;;;;;;;;;5041653;28;20032;-61
2023/06/05 13:33:03;;;;;;;36.93;34.93;;;;;;;;;;5041917;28;20037;-60
2023/06/05 13:35:29;;;;;;;36.00;34.17;;;;;;;;;;5043024;28;20687;-61
2023/06/05 13:37:54;;;;;;;36.83;35.03;;;;;;;;;;5041245;28;20049;-61
2023/06/05 13:40:20;;;;;;;37.50;35.50;;;;;;;;;;5042512;28;20336;-61
2023/06/05 13:42:45;;;;;;;36.93;35.03;;;;;;;;;;5042829;28;20055;-59
2023/06/05 13:45:11;;;;;;;42.97;40.87;;;;;;;;;;5042406;28;20068;-58
2023/06/05 13:47:37;;;;;;;43.83;41.63;;;;;;;;;;5041400;28;20110;-59
2023/06/05 13:50:03;;;;;;;44.10;41.90;;;;;;;;;;5042089;28;20118;-59
2023/06/05 13:52:29;;;;;;;46.27;43.70;;;;;;;;;;5041555;28;20029;-61
2023/06/05 13:54:54;;;;;;;42.30;40.17;;;;;;;;;;5041640;28;20029;-60
2023/06/05 13:57:20;;;;;;;37.37;35.37;;;;;;;;;;5041805;28;20136;-61
2023/06/05 13:59:45;;;;;;;39.67;37.40;;;;;;;;;;5022856;28;20471;-60
2023/06/05 14:02:11;;;;;;;38.90;36.70;;;;;;;;;;5042056;28;20541;-60
2023/06/05 14:04:37;;;;;;;37.57;35.67;;;;;;;;;;5043246;28;20490;-60
2023/06/05 14:07:03;;;;;;;37.27;35.27;;;;;;;;;;5041342;28;20574;-59
2023/06/05 14:09:29;;;;;;;37.17;35.17;;;;;;;;;;5040317;28;20065;-60
2023/06/05 14:11:55;;;;;;;40.07;37.83;;;;;;;;;;5038792;28;20045;-60
2023/06/05 14:14:22;;;;;;;35.83;33.83;;;;;;;;;;5040308;28;20131;-61